Time;durP1;ratioP1;P1;durP2;ratioP2;P2;SDS_P1;SDS_P2;PMS_P1;PMS_P2;Temp;Humidity;BMP_temperature;BMP_pressure;BME280_temperature;BME280_humidity;BME280_pressure;Samples;Min_cycle;Max_cycle;Signal;HPM_P1;HPM_P2
2022/03/11 06:00:39;;;;;;;23.50;21.03;;;6.50;95.70;;;;;;1707901;29;20214;-83
2022/03/11 06:01:30;;;;;;;23.05;20.70;;;6.50;95.70;;;;;;1708145;29;20210;-84
2022/03/11 06:02:22;;;;;;;23.20;20.60;;;6.50;95.70;;;;;;1708149;29;20206;-85
2022/03/11 06:03:13;;;;;;;24.63;20.70;;;6.50;95.70;;;;;;1708195;29;20207;-83
2022/03/11 06:04:05;;;;;;;22.07;19.77;;;6.50;95.70;;;;;;1708139;29;20198;-85
2022/03/11 06:04:55;;;;;;;22.52;20.40;;;6.40;95.80;;;;;;1707997;29;20199;-85
2022/03/11 06:05:47;;;;;;;22.93;20.47;;;6.40;95.80;;;;;;1708063;29;20202;-85
2022/03/11 06:06:38;;;;;;;22.98;20.35;;;6.40;95.80;;;;;;1707995;29;20681;-85
2022/03/11 06:07:29;;;;;;;24.30;20.47;;;6.40;95.70;;;;;;1708061;29;20616;-85
2022/03/11 06:08:20;;;;;;;22.80;20.42;;;6.50;95.50;;;;;;1707786;29;20206;-85
2022/03/11 06:09:12;;;;;;;23.10;20.80;;;6.50;95.40;;;;;;1708021;29;20195;-85
2022/03/11 06:10:03;;;;;;;22.73;20.40;;;6.50;95.30;;;;;;1707977;29;20453;-85
2022/03/11 06:10:55;;;;;;;23.23;20.92;;;6.50;95.30;;;;;;1708015;29;20227;-85
2022/03/11 06:11:46;;;;;;;22.48;20.17;;;6.50;95.20;;;;;;1708236;29;20596;-85
2022/03/11 06:12:37;;;;;;;22.90;20.13;;;6.50;95.20;;;;;;1708296;29;20202;-84
2022/03/11 06:13:28;;;;;;;22.80;20.55;;;6.50;95.10;;;;;;1708206;29;20209;-84
2022/03/11 06:14:20;;;;;;;21.40;19.20;;;6.40;95.30;;;;;;1707767;29;20205;-83
2022/03/11 06:15:11;;;;;;;21.42;19.33;;;6.40;95.20;;;;;;1701638;29;20225;-83
2022/03/11 06:16:05;;;;;;;21.05;19.00;;;6.40;95.10;;;;;;1701639;29;20294;-82
2022/03/11 06:16:56;;;;;;;21.77;19.67;;;6.40;95.10;;;;;;1701720;29;20204;-85
2022/03/11 06:17:48;;;;;;;22.77;20.47;;;6.40;95.20;;;;;;1701628;29;20209;-84
2022/03/11 06:18:39;;;;;;;21.67;19.58;;;6.40;95.10;;;;;;1701219;29;20227;-83
2022/03/11 06:19:31;;;;;;;22.38;20.08;;;6.40;95.10;;;;;;1701883;29;20667;-84
2022/03/11 06:20:22;;;;;;;21.77;19.52;;;6.50;94.90;;;;;;1701795;29;20576;-84
2022/03/11 06:21:13;;;;;;;21.60;19.30;;;6.50;94.80;;;;;;1702035;29;20199;-85
2022/03/11 06:22:04;;;;;;;21.77;19.65;;;6.50;94.70;;;;;;1702074;29;20455;-84
2022/03/11 06:22:56;;;;;;;22.10;19.70;;;6.50;94.60;;;;;;1702112;29;20218;-84
2022/03/11 06:23:46;;;;;;;21.20;19.10;;;6.50;94.60;;;;;;1701896;29;20670;-84
2022/03/11 06:24:38;;;;;;;21.73;19.57;;;6.50;94.60;;;;;;1705904;29;20659;-85
2022/03/11 06:25:29;;;;;;;50.90;21.83;;;6.50;94.50;;;;;;1703837;29;20219;-85
2022/03/11 06:26:20;;;;;;;22.10;19.10;;;6.50;94.50;;;;;;1703829;29;20204;-85
2022/03/11 06:27:11;;;;;;;21.38;19.38;;;6.50;94.60;;;;;;1702842;29;20230;-85
2022/03/11 06:28:03;;;;;;;21.97;19.83;;;6.50;94.50;;;;;;1703070;29;20210;-85
2022/03/11 06:28:54;;;;;;;22.20;19.70;;;6.50;94.60;;;;;;1702714;29;20453;-85
2022/03/11 06:29:46;;;;;;;21.07;18.97;;;6.40;94.70;;;;;;1703077;29;20326;-85
2022/03/11 06:30:37;;;;;;;22.17;19.85;;;6.40;94.70;;;;;;1702011;29;20219;-84
2022/03/11 06:31:30;;;;;;;21.40;19.20;;;6.40;94.90;;;;;;1704711;29;20218;-85
2022/03/11 06:32:21;;;;;;;21.92;19.52;;;6.40;94.90;;;;;;1705170;29;20214;-84
2022/03/11 06:33:12;;;;;;;22.52;20.13;;;6.40;94.90;;;;;;1703768;29;20207;-84
2022/03/11 06:34:03;;;;;;;22.30;20.10;;;6.40;94.90;;;;;;1704848;29;20201;-85
2022/03/11 06:34:55;;;;;;;23.50;20.53;;;6.50;94.70;;;;;;1704521;29;20230;-85
2022/03/11 06:35:46;;;;;;;22.75;20.08;;;6.50;94.60;;;;;;1703152;29;20565;-85
2022/03/11 06:36:37;;;;;;;24.80;20.10;;;6.50;94.70;;;;;;1704348;29;20265;-85
2022/03/11 06:37:31;;;;;;;21.77;19.48;;;6.50;94.60;;;;;;1704919;29;20198;-84
2022/03/11 06:38:22;;;;;;;21.60;19.33;;;6.50;94.70;;;;;;1703424;29;20205;-84
2022/03/11 06:39:13;;;;;;;22.45;18.40;;;6.50;94.80;;;;;;1704582;29;20284;-86
2022/03/11 06:40:06;;;;;;;22.50;20.17;;;6.50;94.80;;;;;;1703555;29;20196;-85
2022/03/11 06:40:57;;;;;;;21.15;19.02;;;6.50;94.80;;;;;;1703795;29;20227;-85
2022/03/11 06:41:49;;;;;;;22.20;19.87;;;6.50;94.70;;;;;;1703775;29;20195;-84
2022/03/11 06:42:42;;;;;;;21.70;19.55;;;6.50;94.80;;;;;;1704174;29;20254;-84
2022/03/11 06:43:34;;;;;;;21.80;19.63;;;6.50;94.80;;;;;;1704392;29;20584;-85
2022/03/11 06:44:24;;;;;;;23.48;21.08;;;6.50;94.80;;;;;;1704781;29;20207;-84
2022/03/11 06:45:17;;;;;;;20.97;18.87;;;6.50;94.70;;;;;;1703688;29;20207;-84
2022/03/11 06:46:09;;;;;;;22.17;19.95;;;6.50;94.70;;;;;;1705007;29;20258;-84
2022/03/11 06:47:01;;;;;;;21.98;19.67;;;6.60;94.40;;;;;;1704612;29;20230;-84
2022/03/11 06:47:53;;;;;;;21.00;18.90;;;6.60;94.20;;;;;;1703763;29;20213;-84
2022/03/11 06:48:44;;;;;;;22.80;20.48;;;6.70;94.10;;;;;;1704054;29;20582;-85
2022/03/11 06:49:35;;;;;;;22.00;19.73;;;6.70;93.90;;;;;;1703848;29;20618;-84
2022/03/11 06:50:26;;;;;;;22.08;19.88;;;6.70;93.80;;;;;;1703878;29;20198;-84
2022/03/11 06:51:18;;;;;;;21.05;18.90;;;6.70;93.80;;;;;;1704040;29;20647;-85
2022/03/11 06:52:09;;;;;;;21.05;19.05;;;6.80;93.80;;;;;;1702438;29;20199;-84
2022/03/11 06:53:00;;;;;;;20.97;18.90;;;6.80;93.70;;;;;;1705010;29;20202;-84
2022/03/11 06:53:51;;;;;;;21.65;19.23;;;6.80;93.60;;;;;;1704906;29;20198;-85
2022/03/11 06:54:43;;;;;;;22.87;20.33;;;6.80;93.50;;;;;;1703338;29;20216;-84
2022/03/11 06:55:34;;;;;;;21.65;19.50;;;6.80;93.60;;;;;;1703661;29;20241;-85
2022/03/11 06:56:26;;;;;;;22.87;19.80;;;6.80;93.60;;;;;;1701206;29;20666;-84
2022/03/11 06:57:17;;;;;;;21.02;18.85;;;6.80;93.50;;;;;;1703805;29;20446;-85
2022/03/11 06:58:09;;;;;;;21.38;19.08;;;6.80;93.50;;;;;;1703132;29;20708;-84
2022/03/11 06:59:00;;;;;;;21.23;18.75;;;6.80;93.60;;;;;;1703882;29;20206;-84
2022/03/11 06:59:51;;;;;;;19.97;17.97;;;6.80;93.60;;;;;;1702562;29;20270;-85
2022/03/11 07:00:42;;;;;;;21.63;18.65;;;6.80;93.50;;;;;;1703127;29;20231;-84
2022/03/11 07:01:34;;;;;;;21.37;19.17;;;6.70;93.50;;;;;;1703196;29;20191;-84
2022/03/11 07:02:26;;;;;;;21.25;18.75;;;6.70;93.70;;;;;;1703888;29;20583;-85
2022/03/11 07:03:18;;;;;;;20.20;18.10;;;6.70;93.90;;;;;;1703801;29;21288;-84
2022/03/11 07:04:09;;;;;;;20.00;17.23;;;6.70;93.90;;;;;;1704505;29;20697;-84
2022/03/11 07:05:00;;;;;;;21.00;18.60;;;6.70;93.90;;;;;;1703760;29;20557;-83
2022/03/11 07:05:51;;;;;;;19.38;17.25;;;6.70;94.00;;;;;;1704529;29;20239;-84
2022/03/11 07:06:43;;;;;;;20.10;17.97;;;6.70;93.80;;;;;;1702705;29;20199;-84
2022/03/11 07:07:34;;;;;;;19.48;17.48;;;6.80;93.80;;;;;;1702758;29;20242;-84
2022/03/11 07:08:25;;;;;;;19.30;17.13;;;6.80;93.60;;;;;;1703927;29;20666;-83
2022/03/11 07:09:16;;;;;;;19.60;17.73;;;6.80;93.50;;;;;;1704048;29;20854;-85
2022/03/11 07:10:10;;;;;;;18.87;16.63;;;6.80;93.20;;;;;;1703598;29;20597;-84
2022/03/11 07:11:02;;;;;;;18.40;16.50;;;6.80;93.00;;;;;;1703667;29;20195;-85
2022/03/11 07:11:57;;;;;;;19.48;17.33;;;6.80;93.10;;;;;;1704281;29;20217;-84
2022/03/11 07:12:48;;;;;;;18.23;16.40;;;6.80;93.10;;;;;;1703621;29;20230;-85
2022/03/11 07:13:39;;;;;;;18.60;16.70;;;6.80;93.20;;;;;;1703800;29;20201;-84
2022/03/11 07:14:33;;;;;;;18.48;16.58;;;6.90;93.30;;;;;;1703168;29;20202;-84
2022/03/11 07:15:25;;;;;;;17.83;16.02;;;6.90;93.30;;;;;;1702708;29;20329;-84
2022/03/11 07:16:15;;;;;;;17.90;16.17;;;7.00;92.80;;;;;;1703274;29;20202;-84
2022/03/11 07:17:07;;;;;;;19.20;16.97;;;7.00;92.30;;;;;;1704755;29;20258;-85
2022/03/11 07:17:59;;;;;;;17.63;15.93;;;7.10;91.90;;;;;;1704464;29;20222;-85
2022/03/11 07:18:51;;;;;;;16.90;15.32;;;7.10;91.70;;;;;;1702795;29;20272;-85
2022/03/11 07:19:42;;;;;;;17.88;15.90;;;7.10;91.40;;;;;;1704017;29;20198;-85
2022/03/11 07:20:34;;;;;;;17.33;15.60;;;7.00;91.30;;;;;;1704092;29;20223;-85
2022/03/11 07:21:25;;;;;;;22.38;16.77;;;7.00;91.30;;;;;;1704146;29;20274;-85
2022/03/11 07:22:17;;;;;;;18.40;16.50;;;7.00;91.30;;;;;;1703134;29;20195;-85
2022/03/11 07:23:07;;;;;;;18.73;15.70;;;7.00;91.30;;;;;;1704783;29;20206;-84
2022/03/11 07:23:59;;;;;;;16.80;15.10;;;7.00;91.20;;;;;;1704170;29;20201;-85
2022/03/11 07:24:50;;;;;;;17.15;15.30;;;7.00;91.30;;;;;;1705084;29;20253;-85
2022/03/11 07:25:42;;;;;;;18.60;15.87;;;7.00;91.30;;;;;;1703901;29;20194;-83
2022/03/11 07:26:33;;;;;;;18.10;16.20;;;7.10;91.30;;;;;;1703193;29;20206;-85
2022/03/11 07:27:24;;;;;;;18.93;15.63;;;7.10;91.20;;;;;;1703959;29;20631;-85
2022/03/11 07:28:15;;;;;;;19.15;16.40;;;7.10;91.20;;;;;;1703973;29;20463;-85
2022/03/11 07:29:07;;;;;;;22.10;17.03;;;7.00;91.40;;;;;;1702627;29;20198;-84
2022/03/11 07:29:58;;;;;;;18.13;15.43;;;7.00;91.50;;;;;;1703461;29;20203;-84
2022/03/11 07:30:49;;;;;;;18.73;16.77;;;7.00;91.20;;;;;;1703274;29;20234;-85
2022/03/11 07:31:40;;;;;;;18.63;16.77;;;7.00;91.20;;;;;;1703380;29;20234;-84
2022/03/11 07:32:32;;;;;;;18.73;16.10;;;7.00;91.50;;;;;;1703495;29;20195;-85
2022/03/11 07:33:24;;;;;;;16.77;15.18;;;7.00;91.60;;;;;;1703578;29;20603;-85
2022/03/11 07:34:16;;;;;;;18.20;15.55;;;7.00;91.50;;;;;;1702746;29;20210;-84
2022/03/11 07:35:09;;;;;;;17.70;15.90;;;7.00;91.30;;;;;;1702358;29;20270;-85
2022/03/11 07:36:00;;;;;;;16.83;15.05;;;7.00;91.30;;;;;;1701866;29;20694;-84
2022/03/11 07:36:51;;;;;;;17.85;15.90;;;7.00;91.30;;;;;;1701607;29;20206;-84
2022/03/11 07:37:43;;;;;;;18.57;15.80;;;7.00;91.40;;;;;;1702925;29;20205;-84
2022/03/11 07:38:33;;;;;;;18.08;16.23;;;7.00;91.50;;;;;;1704129;29;20213;-85
2022/03/11 07:39:25;;;;;;;17.37;15.57;;;7.00;91.60;;;;;;1702123;29;20210;-85
2022/03/11 07:40:16;;;;;;;16.60;14.90;;;7.00;91.60;;;;;;1704118;29;20237;-85
2022/03/11 07:41:10;;;;;;;17.30;15.50;;;7.00;91.60;;;;;;1704281;29;20210;-85
2022/03/11 07:42:01;;;;;;;17.80;15.98;;;7.10;91.50;;;;;;1703094;29;21028;-85
2022/03/11 07:42:53;;;;;;;17.70;15.90;;;7.20;91.50;;;;;;1704218;29;20724;-84
2022/03/11 07:43:44;;;;;;;20.05;17.98;;;7.20;91.50;;;;;;1703969;29;20481;-85
2022/03/11 07:44:36;;;;;;;17.45;15.20;;;7.20;91.40;;;;;;1700296;28;20203;-84
2022/03/11 07:45:27;;;;;;;19.25;16.60;;;7.20;91.30;;;;;;1703037;28;20207;-85
2022/03/11 07:46:20;;;;;;;18.00;16.10;;;7.20;91.30;;;;;;1704555;28;20289;-85
2022/03/11 07:47:11;;;;;;;18.40;16.40;;;7.20;91.30;;;;;;1703722;28;20454;-85
2022/03/11 07:48:03;;;;;;;17.02;15.27;;;7.20;91.40;;;;;;1703565;28;20945;-85
2022/03/11 07:48:55;;;;;;;18.23;16.33;;;7.20;91.10;;;;;;1702568;29;20682;-85
2022/03/11 07:49:47;;;;;;;19.75;16.40;;;7.20;91.20;;;;;;1702154;29;20293;-85
2022/03/11 07:50:37;;;;;;;18.50;16.60;;;7.20;91.30;;;;;;1704039;29;20744;-85
2022/03/11 07:51:30;;;;;;;17.43;15.67;;;7.30;91.40;;;;;;1704288;29;20194;-85
2022/03/11 07:52:22;;;;;;;18.52;16.50;;;7.30;91.60;;;;;;1703413;29;20250;-84
2022/03/11 07:53:14;;;;;;;21.80;16.63;;;7.30;91.60;;;;;;1702240;29;20667;-84
2022/03/11 07:54:05;;;;;;;18.33;15.32;;;7.40;91.70;;;;;;1702573;29;20213;-84
2022/03/11 07:54:57;;;;;;;17.60;14.83;;;7.40;91.80;;;;;;1702791;29;20205;-85
2022/03/11 07:55:47;;;;;;;17.95;16.13;;;7.50;91.80;;;;;;1702650;29;20569;-84
2022/03/11 07:56:40;;;;;;;18.53;16.13;;;7.60;91.60;;;;;;1703567;29;20276;-85
2022/03/11 07:57:31;;;;;;;16.65;14.93;;;7.70;91.50;;;;;;1703303;29;20206;-85
2022/03/11 07:58:24;;;;;;;16.20;14.30;;;7.70;91.20;;;;;;1701390;29;20228;-84
2022/03/11 07:59:15;;;;;;;16.85;15.05;;;7.70;91.00;;;;;;1704334;29;20618;-85
2022/03/11 08:00:09;;;;;;;17.30;15.50;;;7.80;90.50;;;;;;1701969;29;20218;-85
2022/03/11 08:01:00;;;;;;;19.48;15.23;;;7.90;90.40;;;;;;1702499;29;20230;-84
2022/03/11 08:01:52;;;;;;;16.15;14.25;;;7.90;90.90;;;;;;1703671;29;20273;-85
2022/03/11 08:02:43;;;;;;;16.35;14.65;;;7.90;91.20;;;;;;1704464;29;20689;-85
2022/03/11 08:03:35;;;;;;;17.83;14.43;;;7.90;90.80;;;;;;1704106;29;20201;-84
2022/03/11 08:04:29;;;;;;;17.05;15.25;;;8.00;90.70;;;;;;1703909;29;20198;-84
2022/03/11 08:05:21;;;;;;;17.20;14.40;;;8.00;90.40;;;;;;1703799;29;20205;-85
2022/03/11 08:06:11;;;;;;;18.80;14.20;;;8.00;89.90;;;;;;1703063;29;20207;-84
2022/03/11 08:07:06;;;;;;;18.67;16.30;;;8.10;89.70;;;;;;1702364;29;20191;-85
2022/03/11 08:07:57;;;;;;;17.15;15.45;;;8.10;89.70;;;;;;1703401;29;20350;-86
2022/03/11 08:08:49;;;;;;;16.33;14.63;;;8.10;89.50;;;;;;1703965;29;20227;-84
2022/03/11 08:09:40;;;;;;;20.02;14.75;;;8.10;89.40;;;;;;1704505;29;20730;-84
2022/03/11 08:10:33;;;;;;;16.20;14.60;;;8.10;89.30;;;;;;1703565;29;20610;-84
2022/03/11 08:11:24;;;;;;;19.80;14.63;;;8.10;89.40;;;;;;1704072;29;20234;-85
2022/03/11 08:12:16;;;;;;;16.60;15.00;;;8.20;89.70;;;;;;1702879;29;20214;-83
2022/03/11 08:13:07;;;;;;;19.02;16.17;;;8.20;89.80;;;;;;1704079;29;20213;-85
2022/03/11 08:13:59;;;;;;;17.45;15.35;;;8.20;89.50;;;;;;1702213;29;20195;-84
2022/03/11 08:14:49;;;;;;;17.10;15.40;;;8.20;89.50;;;;;;1703082;29;20203;-84
2022/03/11 08:15:41;;;;;;;18.30;15.50;;;8.20;89.50;;;;;;1703746;29;20227;-84
2022/03/11 08:16:32;;;;;;;18.10;16.20;;;8.30;89.60;;;;;;1704260;29;20206;-86
2022/03/11 08:17:24;;;;;;;18.23;16.33;;;8.30;89.60;;;;;;1702759;29;20325;-85
2022/03/11 08:18:14;;;;;;;17.65;15.77;;;8.30;89.60;;;;;;1704111;29;20447;-85
2022/03/11 08:19:08;;;;;;;17.70;15.90;;;8.30;89.50;;;;;;1704986;29;20206;-85
2022/03/11 08:20:00;;;;;;;16.48;14.80;;;8.40;89.60;;;;;;1702728;29;20450;-85
2022/03/11 08:20:52;;;;;;;16.95;15.15;;;8.40;89.80;;;;;;1702091;29;20701;-84
2022/03/11 08:21:43;;;;;;;17.33;14.73;;;8.40;89.70;;;;;;1704011;29;20226;-85
2022/03/11 08:22:35;;;;;;;18.53;16.47;;;8.40;89.50;;;;;;1702679;29;20195;-85
2022/03/11 08:23:27;;;;;;;18.27;15.98;;;8.50;89.60;;;;;;1702719;29;20231;-84
2022/03/11 08:24:18;;;;;;;20.00;16.38;;;8.50;89.80;;;;;;1702945;29;20206;-85
2022/03/11 08:25:10;;;;;;;20.90;16.02;;;8.60;90.40;;;;;;1703666;29;20207;-85
2022/03/11 08:26:02;;;;;;;19.38;16.25;;;8.60;90.30;;;;;;1702626;29;20204;-84
2022/03/11 08:26:54;;;;;;;19.85;16.50;;;8.70;90.00;;;;;;1703639;29;20283;-84
2022/03/11 08:27:44;;;;;;;18.20;16.23;;;8.70;89.80;;;;;;1703457;29;20222;-86
2022/03/11 08:28:36;;;;;;;18.10;15.93;;;8.80;89.90;;;;;;1702233;29;20214;-84
2022/03/11 08:29:32;;;;;;;23.20;16.55;;;8.80;89.70;;;;;;1702415;29;20204;-85
2022/03/11 08:30:25;;;;;;;20.75;16.45;;;8.90;89.40;;;;;;1702232;29;20195;-85
2022/03/11 08:31:17;;;;;;;21.52;15.95;;;8.90;89.30;;;;;;1703207;29;20693;-85
2022/03/11 08:32:09;;;;;;;19.08;15.90;;;8.90;89.10;;;;;;1702982;29;20199;-84
2022/03/11 08:33:00;;;;;;;18.40;16.25;;;8.90;89.20;;;;;;1703458;29;20203;-85
2022/03/11 08:33:52;;;;;;;19.50;16.20;;;9.00;89.40;;;;;;1703183;29;20294;-84
2022/03/11 08:34:43;;;;;;;22.45;16.73;;;9.00;89.50;;;;;;1702821;29;20454;-85
2022/03/11 08:35:36;;;;;;;18.23;15.77;;;9.10;89.20;;;;;;1702436;29;20278;-85
2022/03/11 08:36:27;;;;;;;16.27;14.63;;;9.20;88.90;;;;;;1702769;29;20203;-85
2022/03/11 08:37:18;;;;;;;17.70;15.90;;;9.20;88.80;;;;;;1702720;29;20194;-84
2022/03/11 08:38:09;;;;;;;16.58;14.82;;;9.30;88.90;;;;;;1703030;29;20721;-85
2022/03/11 08:39:01;;;;;;;19.13;16.73;;;9.30;88.50;;;;;;1702447;29;20217;-83
2022/03/11 08:39:53;;;;;;;17.92;16.13;;;9.40;88.40;;;;;;1700467;29;20203;-84
2022/03/11 08:40:44;;;;;;;16.55;14.90;;;9.40;88.50;;;;;;1700089;29;20230;-85
2022/03/11 08:41:36;;;;;;;18.55;16.65;;;9.40;88.50;;;;;;1701159;29;20206;-84
2022/03/11 08:42:27;;;;;;;21.42;16.58;;;9.40;88.30;;;;;;1701565;29;20242;-85
2022/03/11 08:43:19;;;;;;;19.10;16.27;;;9.40;88.30;;;;;;1702237;29;20202;-84
2022/03/11 08:44:10;;;;;;;19.13;16.17;;;9.50;88.40;;;;;;1701400;29;20470;-85
2022/03/11 08:45:02;;;;;;;17.70;15.90;;;9.50;88.70;;;;;;1701600;29;20270;-84
2022/03/11 08:45:53;;;;;;;19.33;15.48;;;9.60;89.00;;;;;;1702039;29;20459;-84
2022/03/11 08:46:45;;;;;;;17.33;15.40;;;9.60;89.20;;;;;;1702797;28;20239;-84
2022/03/11 08:47:36;;;;;;;17.27;15.50;;;9.70;88.90;;;;;;1703159;29;20543;-85
2022/03/11 08:48:28;;;;;;;16.13;14.40;;;9.80;88.80;;;;;;1703175;29;20946;-84
2022/03/11 08:49:18;;;;;;;17.65;14.90;;;9.90;88.70;;;;;;1702971;29;20464;-84
2022/03/11 08:50:11;;;;;;;16.57;14.77;;;9.90;88.40;;;;;;1702812;29;20290;-84
2022/03/11 08:51:03;;;;;;;17.33;15.55;;;10.00;88.20;;;;;;1703217;29;20450;-84
2022/03/11 08:51:56;;;;;;;16.95;15.23;;;10.00;87.90;;;;;;1702581;29;20199;-85
2022/03/11 08:52:47;;;;;;;15.90;14.30;;;10.10;87.80;;;;;;1705111;29;20665;-85
2022/03/11 08:53:39;;;;;;;16.65;14.85;;;10.20;87.60;;;;;;1704798;29;20199;-85
2022/03/11 08:54:30;;;;;;;16.13;14.40;;;10.20;87.40;;;;;;1702963;29;20206;-84
2022/03/11 08:55:22;;;;;;;16.17;14.47;;;10.30;87.10;;;;;;1701723;29;20274;-85
2022/03/11 08:56:15;;;;;;;17.10;15.02;;;10.30;86.80;;;;;;1703380;29;20495;-85
2022/03/11 08:57:07;;;;;;;17.70;15.95;;;10.40;86.50;;;;;;1702805;29;20202;-85
2022/03/11 08:57:58;;;;;;;16.65;14.20;;;10.40;86.40;;;;;;1702160;29;20667;-84
2022/03/11 08:58:50;;;;;;;16.40;14.00;;;10.40;86.00;;;;;;1702851;29;20608;-84
2022/03/11 08:59:41;;;;;;;17.25;13.82;;;10.50;86.00;;;;;;1703975;29;20198;-84
2022/03/11 09:00:33;;;;;;;17.17;15.47;;;10.50;86.00;;;;;;1702758;29;20215;-85
2022/03/11 09:01:24;;;;;;;16.70;14.95;;;10.60;85.90;;;;;;1702191;29;20465;-84
2022/03/11 09:02:16;;;;;;;17.87;14.30;;;10.70;85.80;;;;;;1704091;29;20294;-84
2022/03/11 09:03:07;;;;;;;15.02;13.52;;;10.70;85.60;;;;;;1704523;29;20457;-85
2022/03/11 09:03:59;;;;;;;17.30;14.40;;;10.70;85.60;;;;;;1704108;29;20226;-84
2022/03/11 09:04:50;;;;;;;15.20;13.70;;;10.80;85.70;;;;;;1702874;29;20207;-85
2022/03/11 09:05:42;;;;;;;16.57;13.80;;;10.80;85.60;;;;;;1704123;29;20227;-84
2022/03/11 09:06:34;;;;;;;17.58;14.52;;;10.90;85.20;;;;;;1703375;29;20466;-85
2022/03/11 09:07:29;;;;;;;15.20;13.60;;;11.00;85.20;;;;;;1703512;29;20226;-84
2022/03/11 09:08:20;;;;;;;16.20;14.50;;;11.00;85.00;;;;;;1702843;29;20290;-84
2022/03/11 09:09:12;;;;;;;16.48;14.65;;;11.10;84.70;;;;;;1702250;29;20237;-84
2022/03/11 09:10:05;;;;;;;17.85;14.32;;;11.20;84.80;;;;;;1701696;29;20203;-85
2022/03/11 09:10:57;;;;;;;16.27;14.68;;;11.30;84.60;;;;;;1702759;29;21379;-86
2022/03/11 09:11:47;;;;;;;15.80;14.30;;;11.40;84.20;;;;;;1703072;29;20884;-84
2022/03/11 09:12:40;;;;;;;15.87;14.07;;;11.50;84.30;;;;;;1703116;29;20912;-85
2022/03/11 09:13:31;;;;;;;15.65;14.10;;;11.60;84.40;;;;;;1701810;29;20262;-84
2022/03/11 09:14:23;;;;;;;15.52;13.88;;;11.80;84.50;;;;;;1702204;29;20874;-85
2022/03/11 09:15:14;;;;;;;14.38;12.82;;;12.00;84.50;;;;;;1703184;29;20210;-85
2022/03/11 09:16:06;;;;;;;21.00;13.57;;;12.20;84.40;;;;;;1703357;29;20255;-85
2022/03/11 09:16:57;;;;;;;15.13;13.38;;;12.30;83.30;;;;;;1702998;29;20219;-85
2022/03/11 09:17:49;;;;;;;14.48;13.07;;;12.50;83.00;;;;;;1701963;29;20585;-84
2022/03/11 09:18:40;;;;;;;15.98;14.38;;;12.60;83.00;;;;;;1701368;29;20223;-85
2022/03/11 09:19:32;;;;;;;14.90;13.40;;;12.80;83.50;;;;;;1701651;29;20293;-85
2022/03/11 09:20:23;;;;;;;14.93;13.40;;;13.00;83.90;;;;;;1703947;29;20198;-85
2022/03/11 09:21:15;;;;;;;14.40;13.10;;;13.20;82.50;;;;;;1702216;29;20202;-84
2022/03/11 09:22:08;;;;;;;14.70;12.73;;;13.40;81.70;;;;;;1703362;29;20203;-86
2022/03/11 09:23:00;;;;;;;15.90;14.30;;;13.50;81.40;;;;;;1702452;29;20214;-85
2022/03/11 09:23:50;;;;;;;15.07;13.60;;;13.70;80.50;;;;;;1701713;29;20582;-85
2022/03/11 09:24:42;;;;;;;13.60;12.30;;;13.90;80.50;;;;;;1703210;29;20238;-85
2022/03/11 09:25:33;;;;;;;14.73;13.18;;;14.00;79.90;;;;;;1703638;29;20569;-85
2022/03/11 09:26:25;;;;;;;15.30;13.73;;;14.20;79.00;;;;;;1703305;29;20464;-85
2022/03/11 09:27:18;;;;;;;14.73;13.20;;;14.30;78.80;;;;;;1702374;29;20459;-85
2022/03/11 09:28:11;;;;;;;14.70;13.30;;;14.40;78.40;;;;;;1702024;29;20242;-85
2022/03/11 09:29:01;;;;;;;14.05;12.55;;;14.50;78.10;;;;;;1702669;29;20298;-84
2022/03/11 09:29:53;;;;;;;14.30;12.70;;;14.70;77.50;;;;;;1701305;29;20202;-83
2022/03/11 09:30:44;;;;;;;14.00;12.70;;;14.80;77.30;;;;;;1702549;29;20250;-85
2022/03/11 09:31:36;;;;;;;14.40;12.90;;;14.90;77.10;;;;;;1702599;29;20301;-85
2022/03/11 09:32:26;;;;;;;14.23;12.90;;;15.00;76.80;;;;;;1707665;29;20206;-83
2022/03/11 09:33:18;;;;;;;14.50;13.00;;;15.20;77.10;;;;;;1704324;29;20285;-85
2022/03/11 09:34:09;;;;;;;13.50;12.30;;;15.30;76.90;;;;;;1704565;29;20225;-85
2022/03/11 09:35:01;;;;;;;14.57;12.57;;;15.50;76.70;;;;;;1704768;29;20199;-85
2022/03/11 09:35:52;;;;;;;14.95;13.48;;;15.70;76.10;;;;;;1704799;29;20203;-84
2022/03/11 09:36:43;;;;;;;14.40;12.97;;;15.80;75.60;;;;;;1702711;29;20203;-84
2022/03/11 09:37:36;;;;;;;14.75;13.25;;;15.90;75.50;;;;;;1703542;29;20226;-83
2022/03/11 09:38:27;;;;;;;14.27;12.77;;;16.10;75.10;;;;;;1703540;29;20690;-84
2022/03/11 09:39:19;;;;;;;14.27;12.93;;;16.30;75.10;;;;;;1703584;29;20566;-85
2022/03/11 09:40:12;;;;;;;14.73;13.32;;;16.40;75.20;;;;;;1704371;29;20198;-85
2022/03/11 09:41:04;;;;;;;15.57;14.05;;;16.60;75.00;;;;;;1703832;29;20195;-84
2022/03/11 09:41:55;;;;;;;13.73;12.32;;;16.70;74.00;;;;;;1702884;29;20677;-84
2022/03/11 09:42:47;;;;;;;16.00;13.47;;;16.80;73.50;;;;;;1703746;29;21638;-84
2022/03/11 09:43:39;;;;;;;14.48;13.02;;;16.80;73.30;;;;;;1701995;29;20211;-84
2022/03/11 09:44:32;;;;;;;14.80;13.40;;;16.90;73.10;;;;;;1703012;29;20203;-84
2022/03/11 09:45:25;;;;;;;13.95;12.60;;;17.00;72.70;;;;;;1705242;29;20206;-84
2022/03/11 09:46:17;;;;;;;14.25;12.73;;;17.10;72.60;;;;;;1703399;29;20566;-84
2022/03/11 09:47:08;;;;;;;13.95;12.65;;;17.10;72.50;;;;;;1703653;29;20222;-84
2022/03/11 09:48:01;;;;;;;14.27;12.77;;;17.20;72.60;;;;;;1703100;29;20233;-84
2022/03/11 09:48:52;;;;;;;15.48;13.93;;;17.40;72.70;;;;;;1703114;29;20635;-85
2022/03/11 09:49:44;;;;;;;14.80;12.90;;;17.50;72.60;;;;;;1702360;29;21387;-84
2022/03/11 09:50:36;;;;;;;15.13;13.50;;;17.60;72.60;;;;;;1702635;29;20717;-85
2022/03/11 09:51:29;;;;;;;15.10;13.80;;;17.70;72.10;;;;;;1703414;29;20257;-85
2022/03/11 09:52:20;;;;;;;16.38;14.88;;;17.80;72.20;;;;;;1703610;29;20320;-84
2022/03/11 09:53:14;;;;;;;15.47;14.13;;;17.90;72.20;;;;;;1703046;29;20195;-84
2022/03/11 09:54:05;;;;;;;14.32;12.82;;;18.10;71.90;;;;;;1702989;29;20478;-84
2022/03/11 09:54:56;;;;;;;13.27;12.07;;;18.20;71.50;;;;;;1702585;29;20205;-84
2022/03/11 09:55:47;;;;;;;14.95;13.45;;;18.30;70.80;;;;;;1704446;29;20459;-85
2022/03/11 09:56:41;;;;;;;15.20;13.60;;;18.40;70.40;;;;;;1702854;29;20227;-83
2022/03/11 09:57:34;;;;;;;14.82;13.32;;;18.50;70.20;;;;;;1703515;29;20210;-85
2022/03/11 09:58:24;;;;;;;14.27;12.05;;;18.50;69.80;;;;;;1703139;29;20207;-84
2022/03/11 09:59:16;;;;;;;13.67;12.27;;;18.60;69.90;;;;;;1702379;29;20686;-85
2022/03/11 10:00:09;;;;;;;17.10;11.88;;;18.70;69.60;;;;;;1702300;29;20211;-84
2022/03/11 10:01:02;;;;;;;15.25;12.70;;;18.70;69.60;;;;;;1702256;29;20234;-83
2022/03/11 10:01:53;;;;;;;13.15;11.93;;;18.80;69.40;;;;;;1702325;29;20214;-84
2022/03/11 10:02:46;;;;;;;12.27;11.00;;;18.90;69.00;;;;;;1703244;29;20195;-85
2022/03/11 10:03:37;;;;;;;15.75;12.00;;;19.00;68.50;;;;;;1702938;29;20221;-85
2022/03/11 10:04:29;;;;;;;13.77;11.73;;;19.10;68.30;;;;;;1703118;29;20710;-84
2022/03/11 10:05:21;;;;;;;13.07;11.68;;;19.10;68.10;;;;;;1704772;29;20225;-85
2022/03/11 10:06:13;;;;;;;14.43;12.80;;;19.20;68.00;;;;;;1705270;29;20209;-86
2022/03/11 10:07:04;;;;;;;15.30;12.60;;;19.20;68.10;;;;;;1703595;29;20199;-85
2022/03/11 10:08:01;;;;;;;13.07;11.77;;;19.30;68.20;;;;;;1703463;29;20230;-84
2022/03/11 10:08:53;;;;;;;12.73;11.43;;;19.40;67.70;;;;;;1702993;29;20206;-85
2022/03/11 10:09:45;;;;;;;13.70;12.18;;;19.40;67.20;;;;;;1701464;29;20210;-85
2022/03/11 10:10:36;;;;;;;13.20;12.00;;;19.40;67.00;;;;;;1702666;29;20218;-85
2022/03/11 10:11:28;;;;;;;12.20;11.00;;;19.50;67.00;;;;;;1702375;29;20198;-85
2022/03/11 10:12:23;;;;;;;14.23;12.73;;;19.50;66.90;;;;;;1703496;29;20837;-85
2022/03/11 10:13:18;;;;;;;12.30;11.18;;;19.50;66.80;;;;;;1701804;29;20204;-84
2022/03/11 10:14:09;;;;;;;12.38;11.25;;;19.50;66.90;;;;;;1703878;29;20216;-84
2022/03/11 10:15:04;;;;;;;13.00;11.88;;;19.50;67.10;;;;;;1702969;29;20217;-85
2022/03/11 10:15:55;;;;;;;11.85;10.40;;;19.60;67.20;;;;;;1703265;29;20572;-85
2022/03/11 10:16:46;;;;;;;14.13;11.20;;;19.60;67.20;;;;;;1702609;29;20675;-85
2022/03/11 10:17:38;;;;;;;12.30;10.93;;;19.70;67.10;;;;;;1703098;29;20679;-85
2022/03/11 10:18:30;;;;;;;11.65;10.55;;;19.80;66.80;;;;;;1703094;29;20217;-85
2022/03/11 10:19:22;;;;;;;13.13;11.80;;;19.80;66.70;;;;;;1703162;29;20575;-84
2022/03/11 10:20:16;;;;;;;13.00;11.70;;;19.90;66.90;;;;;;1702804;29;20199;-85
2022/03/11 10:21:10;;;;;;;12.07;10.88;;;20.00;67.20;;;;;;1702698;29;20703;-84
2022/03/11 10:22:01;;;;;;;11.75;10.65;;;20.10;67.30;;;;;;1703842;29;20195;-84
2022/03/11 10:22:52;;;;;;;11.43;10.43;;;20.20;66.70;;;;;;1704660;29;20591;-85
2022/03/11 10:23:50;;;;;;;12.93;11.77;;;20.30;66.40;;;;;;1702979;29;20226;-84
2022/03/11 10:24:42;;;;;;;11.55;10.55;;;20.40;66.00;;;;;;1705413;29;20481;-85